Iris Victoria — V7TS8 — position and weather

sailwx.info

Track history (hours):
 
Tides and Currents Weather Stations Pressure Air Temp Water Temp Dewpoint Dewpoint Depression Visibility Wind Speed Wind Dir Waves Ship Positions

Iris Victoria

Last reported at 2016-Jul-04 16:33 UTC. Time now 2016-Jul-26 08:21 UTC.
Position N 28°03' W 015°01'.
Warning: this ship's position is 21 days out of date.

Length 228 m; draft 13.1 m.

Type: Tanker. MMSI: 538003876.

Date/timePositionNaut miles runAvg speedWind from/ knotsBaromVisibWave heightAir tempDewpointWater temp
2016-Jul-04 16:33N 28°03' W 015°01'1713.3
2016-Jul-04 15:17N 28°19' W 014°55'6313.0
2016-Jul-04 10:26N 29°21' W 014°38'1613.0
2016-Jul-04 09:15N 29°36' W 014°35'2813.1
2016-Jul-04 07:08N 30°03' W 014°27'36213.0
2016-Jul-03 03:23N 35°56' W 012°53'1112.7
2016-Jul-03 02:31N 36°07' W 012°50'  
2016-Jun-30 10:25N 49°09' W 005°56'1211.6
2016-Jun-30 09:24N 49°14' W 005°39'910.9
2016-Jun-30 08:32N 49°19' W 005°27'5713.0
2016-Jun-30 04:11N 49°42' W 004°08'812.3
2016-Jun-30 03:33N 49°45' W 003°57'1311.7
2016-Jun-30 02:26N 49°51' W 003°39'1011.3
2016-Jun-30 01:34N 49°54' W 003°24'1111.5
2016-Jun-30 00:33N 49°57' W 003°07'1212.1
2016-Jun-29 23:33N 50°01' W 002°49'9413.4
2016-Jun-29 16:33N 50°25' W 000°27'1211.0
2016-Jun-29 15:30N 50°28' W 000°09'1010.9
2016-Jun-29 14:33N 50°31' E 000°06'1211.5
2016-Jun-29 13:32N 50°34' E 000°24'2712.8
2016-Jun-29 11:26N 50°47' E 001°01'1213.1
2016-Jun-29 10:33N 50°53' E 001°17'1212.5
2016-Jun-29 09:33N 51°03' E 001°30'1111.0
2016-Jun-29 08:34N 51°11' E 001°42'1110.9
2016-Jun-29 07:33N 51°20' E 001°51'1111.4
2016-Jun-29 06:33N 51°30' E 001°60'11412.5
2016-Jun-28 21:28N 53°20' E 002°47'1111.6
2016-Jun-28 20:33N 53°30' E 002°53'1312.4
2016-Jun-28 19:33N 53°42' E 003°01'1313.3
2016-Jun-28 18:33N 53°53' E 003°12'  
Track history (hours):
 
Tides and Currents Weather Stations Pressure Air Temp Water Temp Dewpoint Dewpoint Depression Visibility Wind Speed Wind Dir Waves Ship Positions

Iris Victoria

Last reported at 2016-Jul-04 16:33 UTC. Time now 2016-Jul-26 08:21 UTC.
Position N 28°03' W 015°01'.
Warning: this ship's position is 21 days out of date.

Length 228 m; draft 13.1 m.

Type: Tanker. MMSI: 538003876.

Date/timePositionNaut miles runAvg speedWind from/ knotsBaromVisibWave heightAir tempDewpointWater temp
2016-Jul-04 16:33N 28°03' W 015°01'1713.3
2016-Jul-04 15:17N 28°19' W 014°55'6313.0
2016-Jul-04 10:26N 29°21' W 014°38'1613.0
2016-Jul-04 09:15N 29°36' W 014°35'2813.1
2016-Jul-04 07:08N 30°03' W 014°27'36213.0
2016-Jul-03 03:23N 35°56' W 012°53'1112.7
2016-Jul-03 02:31N 36°07' W 012°50'  
2016-Jun-30 10:25N 49°09' W 005°56'1211.6
2016-Jun-30 09:24N 49°14' W 005°39'910.9
2016-Jun-30 08:32N 49°19' W 005°27'5713.0
2016-Jun-30 04:11N 49°42' W 004°08'812.3
2016-Jun-30 03:33N 49°45' W 003°57'1311.7
2016-Jun-30 02:26N 49°51' W 003°39'1011.3
2016-Jun-30 01:34N 49°54' W 003°24'1111.5
2016-Jun-30 00:33N 49°57' W 003°07'1212.1
2016-Jun-29 23:33N 50°01' W 002°49'9413.4
2016-Jun-29 16:33N 50°25' W 000°27'1211.0
2016-Jun-29 15:30N 50°28' W 000°09'1010.9
2016-Jun-29 14:33N 50°31' E 000°06'1211.5
2016-Jun-29 13:32N 50°34' E 000°24'2712.8
2016-Jun-29 11:26N 50°47' E 001°01'1213.1
2016-Jun-29 10:33N 50°53' E 001°17'1212.5
2016-Jun-29 09:33N 51°03' E 001°30'1111.0
2016-Jun-29 08:34N 51°11' E 001°42'1110.9
2016-Jun-29 07:33N 51°20' E 001°51'1111.4
2016-Jun-29 06:33N 51°30' E 001°60'11412.5
2016-Jun-28 21:28N 53°20' E 002°47'1111.6
2016-Jun-28 20:33N 53°30' E 002°53'1312.4
2016-Jun-28 19:33N 53°42' E 003°01'1313.3
2016-Jun-28 18:33N 53°53' E 003°12'  

Dump ship's entire track history